Blyth, United Kingdom
Current Conditions -  °F | °C
As of 1:50 AM on Sunday 26 Oct 2014 (Local Time) from EGNT Reporting Station
Broken Clouds Broken Clouds  
Wind Chill: 55°   Ceiling: 4900
Heat Index: 55°   Visibility: 6mi
Dew Point: 43°   Wind: 15mph
Humidity: 63%   Direction: 230°SW
Pressure: 29.8"   Gusts: 32mph
Location:  55.13°N, 1.51°W
Report Text: EGNT 260050Z 23013G28KT 200V260 9999 FEW040 BKN049 13/06 Q1009
Loading
Personal Weather Stations






























Interactive Weather Map
Tropical Storm Tracking
New forecast layout! Learn more

10-Day Weather Forecast

Advertisements
Track Severe Weather on mobile